Time;durP1;ratioP1;P1;durP2;ratioP2;P2;SDS_P1;SDS_P2;PMS_P1;PMS_P2;Temp;Humidity;BMP_temperature;BMP_pressure;BME280_temperature;BME280_humidity;BME280_pressure;Samples;Min_cycle;Max_cycle;Signal;HPM_P1;HPM_P2
2023/10/27 00:01:09;;;;;;;2.45;2.15;;;9.80;99.90;;;;;;4962311;29;20055;-77
2023/10/27 00:03:36;;;;;;;3.42;2.10;;;9.80;99.90;;;;;;4962647;29;20432;-77
2023/10/27 00:06:02;;;;;;;4.95;2.00;;;9.80;99.90;;;;;;4958815;29;20043;-77
2023/10/27 00:08:28;;;;;;;6.07;1.70;;;9.80;99.90;;;;;;4957264;29;20089;-77
2023/10/27 00:10:54;;;;;;;4.80;2.03;;;9.80;99.90;;;;;;4958155;28;20026;-77
2023/10/27 00:13:20;;;;;;;2.22;2.03;;;9.80;99.90;;;;;;4958069;29;20038;-77
2023/10/27 00:15:46;;;;;;;3.60;1.95;;;9.90;99.90;;;;;;4958043;29;20027;-77
2023/10/27 00:18:12;;;;;;;4.70;2.50;;;9.80;99.90;;;;;;4955970;29;20416;-77
2023/10/27 00:20:38;;;;;;;2.78;1.70;;;9.80;99.90;;;;;;4956336;29;20027;-77
2023/10/27 00:23:03;;;;;;;3.35;2.28;;;9.80;99.90;;;;;;4957224;28;20035;-77
2023/10/27 00:25:29;;;;;;;4.50;2.05;;;9.80;99.90;;;;;;4956084;29;20024;-77
2023/10/27 00:27:55;;;;;;;6.20;2.97;;;9.80;99.90;;;;;;4956117;29;20118;-77
2023/10/27 00:30:20;;;;;;;17.33;2.78;;;9.80;99.90;;;;;;4955886;29;20033;-77
2023/10/27 00:32:47;;;;;;;2.70;1.90;;;9.80;99.90;;;;;;4956124;29;20078;-77
2023/10/27 00:35:12;;;;;;;1.60;1.48;;;9.80;99.90;;;;;;4956427;29;20540;-78
2023/10/27 00:37:40;;;;;;;4.82;2.83;;;9.80;99.90;;;;;;4957800;28;20047;-77
2023/10/27 00:40:10;;;;;;;6.03;3.05;;;9.70;99.90;;;;;;4956428;28;20097;-77
2023/10/27 00:42:35;;;;;;;;;;;9.70;99.90;;;;;;4959609;28;20031;-77
2023/10/27 00:45:01;;;;;;;2.55;1.08;;;9.70;99.90;;;;;;4957590;29;19907;-77
2023/10/27 00:47:29;;;;;;;5.30;1.40;;;9.60;99.90;;;;;;4956241;29;20042;-77
2023/10/27 00:49:55;;;;;;;1.77;1.42;;;9.50;99.90;;;;;;4956329;29;20034;-77
2023/10/27 00:52:24;;;;;;;2.03;1.05;;;9.50;99.90;;;;;;4957426;28;20421;-77
2023/10/27 00:54:51;;;;;;;0.90;0.80;;;9.50;99.90;;;;;;4957270;28;20031;-77
2023/10/27 00:57:18;;;;;;;3.20;1.25;;;9.50;99.90;;;;;;4958050;28;20472;-77
2023/10/27 00:59:44;;;;;;;2.45;0.90;;;9.50;99.90;;;;;;4957691;29;20038;-76
2023/10/27 01:02:10;;;;;;;4.95;1.10;;;9.40;99.90;;;;;;4957868;28;20019;-77
2023/10/27 01:04:37;;;;;;;3.38;1.20;;;9.40;99.90;;;;;;4957540;28;20020;-77
2023/10/27 01:07:03;;;;;;;3.17;1.38;;;9.50;99.90;;;;;;4956218;29;20500;-77
2023/10/27 01:09:29;;;;;;;4.82;1.20;;;9.50;99.90;;;;;;4957088;28;20027;-77
2023/10/27 01:11:55;;;;;;;1.35;1.20;;;9.40;99.90;;;;;;4955723;29;20031;-78
2023/10/27 01:14:22;;;;;;;2.40;1.00;;;9.50;99.90;;;;;;4957007;29;20031;-77
2023/10/27 01:16:48;;;;;;;0.77;0.77;;;9.50;99.90;;;;;;4956014;29;20361;-77
2023/10/27 01:19:15;;;;;;;2.35;0.82;;;9.60;99.90;;;;;;4956854;28;20161;-77
2023/10/27 01:21:42;;;;;;;4.82;1.20;;;9.60;99.90;;;;;;4957124;28;20023;-77
2023/10/27 01:24:08;;;;;;;3.65;1.05;;;9.70;99.90;;;;;;4955993;29;20109;-78
2023/10/27 01:26:34;;;;;;;1.95;1.00;;;9.60;99.90;;;;;;4956153;29;20062;-77
2023/10/27 01:29:03;;;;;;;1.75;1.38;;;9.60;99.90;;;;;;4956757;29;20043;-77
2023/10/27 01:31:29;;;;;;;1.98;0.93;;;9.60;99.90;;;;;;4956301;29;20029;-77
2023/10/27 01:33:54;;;;;;;6.45;1.08;;;9.60;99.90;;;;;;4957314;29;20031;-76
2023/10/27 01:36:20;;;;;;;2.05;1.10;;;9.60;99.90;;;;;;4956173;29;20110;-77
2023/10/27 01:38:45;;;;;;;4.07;1.40;;;9.60;99.90;;;;;;4957688;29;20027;-76
2023/10/27 01:41:11;;;;;;;1.73;1.08;;;9.60;99.90;;;;;;4955689;29;20535;-77
2023/10/27 01:43:37;;;;;;;1.02;1.02;;;9.60;99.90;;;;;;4956241;29;20035;-77
2023/10/27 01:46:02;;;;;;;1.10;1.00;;;9.60;99.90;;;;;;4956235;29;20027;-77
2023/10/27 01:48:28;;;;;;;2.33;0.93;;;9.50;99.90;;;;;;4954684;29;20070;-77
2023/10/27 01:50:55;;;;;;;3.63;1.38;;;9.50;99.90;;;;;;4955782;29;20033;-77
2023/10/27 01:53:20;;;;;;;1.27;0.98;;;9.50;99.90;;;;;;4955583;28;20031;-77
2023/10/27 01:55:46;;;;;;;1.27;1.27;;;9.50;99.90;;;;;;4954645;29;20030;-77
2023/10/27 01:58:12;;;;;;;0.85;0.85;;;9.60;99.90;;;;;;4954643;29;20551;-77
2023/10/27 02:00:37;;;;;;;4.13;1.40;;;9.50;99.90;;;;;;4955881;29;20023;-77
2023/10/27 02:03:03;;;;;;;6.70;0.85;;;9.50;99.90;;;;;;4956203;29;20034;-77
2023/10/27 02:05:29;;;;;;;1.20;0.85;;;9.50;99.90;;;;;;4954820;29;20027;-77
2023/10/27 02:07:54;;;;;;;3.03;1.10;;;9.50;99.90;;;;;;4954703;29;20083;-77
2023/10/27 02:10:20;;;;;;;1.42;1.00;;;9.50;99.90;;;;;;4954715;29;20041;-77
2023/10/27 02:12:45;;;;;;;3.40;0.65;;;9.50;99.90;;;;;;4955854;28;20495;-77
2023/10/27 02:15:12;;;;;;;2.80;0.70;;;9.40;99.90;;;;;;4954622;29;20035;-77
2023/10/27 02:17:39;;;;;;;1.17;0.85;;;9.40;99.90;;;;;;4955530;28;20477;-77
2023/10/27 02:20:08;;;;;;;1.55;0.90;;;9.50;99.90;;;;;;4955742;28;20078;-77
2023/10/27 02:22:33;;;;;;;3.30;0.55;;;9.50;99.90;;;;;;4955764;28;20023;-77
2023/10/27 02:24:59;;;;;;;1.63;0.80;;;9.60;99.90;;;;;;4955553;29;20040;-77
2023/10/27 02:27:25;;;;;;;1.42;0.63;;;9.60;99.90;;;;;;4954268;29;20473;-77
2023/10/27 02:29:51;;;;;;;3.20;1.58;;;9.50;99.90;;;;;;4955445;28;20437;-77
2023/10/27 02:32:16;;;;;;;1.17;0.70;;;9.50;99.90;;;;;;4955688;29;20562;-77
2023/10/27 02:34:42;;;;;;;1.15;0.77;;;9.60;99.90;;;;;;4954657;29;20142;-77
2023/10/27 02:37:08;;;;;;;4.93;1.10;;;9.60;99.90;;;;;;4955933;28;20019;-77
2023/10/27 02:39:33;;;;;;;0.75;0.75;;;9.50;99.90;;;;;;4954724;29;20094;-77
2023/10/27 02:41:59;;;;;;;3.10;1.02;;;9.50;99.90;;;;;;4956341;29;20023;-77
2023/10/27 02:44:24;;;;;;;2.28;0.70;;;9.50;99.90;;;;;;4956721;29;20035;-77
2023/10/27 02:46:50;;;;;;;1.58;1.10;;;9.60;99.90;;;;;;4955368;29;20083;-77
2023/10/27 02:49:16;;;;;;;3.83;0.80;;;9.50;99.90;;;;;;4955490;29;20031;-77
2023/10/27 02:51:41;;;;;;;2.78;1.00;;;9.60;99.90;;;;;;4955384;29;20028;-77
2023/10/27 02:54:07;;;;;;;0.95;0.93;;;9.70;99.90;;;;;;4955347;29;20031;-77
2023/10/27 02:56:33;;;;;;;2.80;1.23;;;9.60;99.90;;;;;;4955844;28;20058;-77
2023/10/27 02:58:58;;;;;;;2.95;1.10;;;9.70;99.90;;;;;;4954638;29;20023;-77
2023/10/27 03:01:24;;;;;;;3.53;1.60;;;9.70;99.90;;;;;;4955222;28;20019;-78
2023/10/27 03:03:49;;;;;;;1.95;1.45;;;9.60;99.90;;;;;;4954478;28;20059;-77
2023/10/27 03:06:15;;;;;;;2.53;1.30;;;9.60;99.90;;;;;;4957626;29;20114;-77
2023/10/27 03:08:41;;;;;;;2.78;1.25;;;9.60;99.90;;;;;;4958784;29;20117;-77
2023/10/27 03:11:08;;;;;;;1.83;1.50;;;9.50;99.90;;;;;;4957528;29;20034;-77
2023/10/27 03:13:33;;;;;;;1.67;1.58;;;9.50;99.90;;;;;;4959064;28;20082;-76
2023/10/27 03:16:00;;;;;;;2.95;2.05;;;9.50;99.90;;;;;;4958750;29;20051;-77
2023/10/27 03:18:26;;;;;;;1.60;1.50;;;9.50;99.90;;;;;;4957517;29;20497;-77
2023/10/27 03:21:00;;;;;;;1.63;1.30;;;9.50;99.90;;;;;;4959844;28;20033;-77
2023/10/27 03:23:27;;;;;;;3.10;1.30;;;9.60;99.90;;;;;;4961046;29;20034;-77
2023/10/27 03:25:53;;;;;;;0.60;0.60;;;9.70;99.90;;;;;;4962304;28;20403;-77
2023/10/27 03:28:22;;;;;;;0.75;0.30;;;9.80;99.90;;;;;;4962882;28;20038;-77
2023/10/27 03:30:49;;;;;;;0.25;0.25;;;10.20;99.90;;;;;;4962353;29;20396;-77
2023/10/27 03:33:16;;;;;;;0.20;0.20;;;10.40;99.90;;;;;;4962051;29;20031;-77
2023/10/27 03:35:44;;;;;;;1.00;0.10;;;10.60;99.90;;;;;;4962126;29;20062;-78
2023/10/27 03:38:13;;;;;;;1.45;0.73;;;10.60;99.90;;;;;;4959737;28;20035;-77
2023/10/27 03:40:40;;;;;;;0.65;0.20;;;10.70;99.90;;;;;;4958838;29;20423;-77
2023/10/27 03:43:06;;;;;;;0.10;0.10;;;10.70;99.90;;;;;;4962828;28;20035;-77
2023/10/27 03:45:33;;;;;;;0.73;0.10;;;10.70;99.90;;;;;;4961326;28;20106;-77
2023/10/27 03:47:59;;;;;;;1.40;0.15;;;10.70;99.90;;;;;;4957902;29;20027;-76
2023/10/27 03:50:25;;;;;;;0.13;0.13;;;10.70;99.90;;;;;;4959760;29;20062;-77
2023/10/27 03:52:50;;;;;;;0.17;0.17;;;10.70;99.90;;;;;;4958497;29;20082;-77
2023/10/27 03:55:16;;;;;;;0.10;0.10;;;10.70;99.90;;;;;;4959142;29;20031;-76
2023/10/27 03:57:42;;;;;;;0.10;0.10;;;10.60;99.90;;;;;;4957934;29;20135;-77
2023/10/27 04:00:08;;;;;;;0.57;0.30;;;10.60;99.90;;;;;;4958689;28;20094;-76
2023/10/27 04:02:34;;;;;;;0.43;0.10;;;10.60;99.90;;;;;;4959255;28;20083;-76
2023/10/27 04:05:00;;;;;;;1.48;0.10;;;10.60;99.90;;;;;;4957939;29;20027;-76
2023/10/27 04:07:26;;;;;;;0.25;0.20;;;10.60;99.90;;;;;;4957761;29;20073;-77
2023/10/27 04:09:52;;;;;;;0.63;0.25;;;10.60;99.90;;;;;;4959125;29;20365;-76
2023/10/27 04:12:18;;;;;;;0.28;0.20;;;10.60;99.90;;;;;;4958215;29;20558;-77
2023/10/27 04:14:44;;;;;;;0.10;0.10;;;10.50;99.90;;;;;;4958740;28;20027;-77
2023/10/27 04:17:10;;;;;;;0.10;0.10;;;10.50;99.90;;;;;;4958469;29;20037;-77
2023/10/27 04:19:35;;;;;;;0.15;0.15;;;10.50;99.90;;;;;;4958117;29;20062;-77
2023/10/27 04:22:03;;;;;;;1.23;0.30;;;10.50;99.90;;;;;;4959618;29;20023;-78
2023/10/27 04:24:29;;;;;;;0.20;0.20;;;10.50;99.90;;;;;;4958622;29;20023;-77
2023/10/27 04:26:55;;;;;;;0.30;0.15;;;10.50;99.90;;;;;;4959907;29;20031;-77
2023/10/27 04:29:20;;;;;;;0.20;0.20;;;10.40;99.90;;;;;;4959172;29;20065;-78
2023/10/27 04:31:46;;;;;;;0.75;0.20;;;10.40;99.90;;;;;;4959223;29;20381;-78
2023/10/27 04:34:12;;;;;;;0.10;0.10;;;10.50;99.90;;;;;;4957415;28;20031;-78
2023/10/27 04:36:37;;;;;;;1.55;0.35;;;10.40;99.90;;;;;;4957727;29;20023;-78
2023/10/27 04:39:04;;;;;;;0.00;0.00;;;10.30;99.90;;;;;;4958160;28;20027;-77
2023/10/27 04:41:30;;;;;;;0.13;0.13;;;10.30;99.90;;;;;;4957171;29;20034;-78
2023/10/27 04:43:56;;;;;;;0.38;0.20;;;10.20;99.90;;;;;;4958575;28;20019;-78
2023/10/27 04:46:24;;;;;;;0.08;0.08;;;10.10;99.90;;;;;;4960200;28;20103;-78
2023/10/27 04:49:05;;;;;;;1.77;0.30;;;10.10;99.90;;;;;;4973400;28;20030;-78
2023/10/27 04:51:49;;;;;;;0.28;0.20;;;10.10;99.90;;;;;;4980680;28;20007;-80
2023/10/27 04:54:15;;;;;;;1.08;0.32;;;10.10;99.90;;;;;;4976608;28;20031;-79
2023/10/27 04:57:17;;;;;;;0.47;0.22;;;10.10;99.90;;;;;;4942949;29;20039;-80
2023/10/27 05:00:15;;;;;;;0.20;0.20;;;10.10;99.90;;;;;;4922979;29;20076;-79
2023/10/27 05:02:41;;;;;;;0.40;0.20;;;10.10;99.90;;;;;;4969286;28;20555;-78
2023/10/27 05:05:08;;;;;;;2.85;0.20;;;10.20;99.90;;;;;;4961256;29;20047;-78
2023/10/27 05:07:46;;;;;;;0.80;0.65;;;10.20;99.90;;;;;;4975462;28;20031;-80
2023/10/27 05:10:12;;;;;;;0.50;0.30;;;10.20;99.90;;;;;;4980729;28;20023;-80
2023/10/27 05:12:37;;;;;;;0.20;0.20;;;10.20;99.90;;;;;;4980437;28;20035;-79
2023/10/27 05:15:03;;;;;;;0.68;0.43;;;10.30;99.90;;;;;;4981482;28;20043;-79
2023/10/27 05:17:47;;;;;;;1.33;0.28;;;10.30;99.90;;;;;;4969674;29;20034;-79
2023/10/27 05:20:13;;;;;;;2.72;0.20;;;10.30;99.90;;;;;;4979471;28;20035;-79
2023/10/27 05:22:39;;;;;;;0.30;0.10;;;10.30;99.90;;;;;;4979449;29;20047;-80
2023/10/27 05:25:06;;;;;;;2.92;0.30;;;10.30;99.90;;;;;;4979353;29;20013;-79
2023/10/27 05:27:33;;;;;;;2.05;0.20;;;10.30;99.90;;;;;;4978258;28;20027;-80
2023/10/27 05:29:59;;;;;;;0.20;0.20;;;10.30;99.90;;;;;;4978737;29;20042;-79
2023/10/27 05:32:25;;;;;;;2.83;0.30;;;10.30;99.90;;;;;;4979194;28;20059;-79
2023/10/27 05:34:51;;;;;;;0.30;0.25;;;10.30;99.90;;;;;;4978529;28;20015;-79
2023/10/27 05:37:17;;;;;;;0.32;0.32;;;10.30;99.90;;;;;;4973551;29;20035;-81
2023/10/27 05:39:45;;;;;;;0.13;0.13;;;10.30;99.90;;;;;;4978205;29;20059;-79
2023/10/27 05:42:11;;;;;;;0.20;0.20;;;10.20;99.90;;;;;;4977594;29;20039;-78
2023/10/27 05:44:37;;;;;;;0.25;0.20;;;10.20;99.90;;;;;;4978387;28;20015;-79
2023/10/27 05:47:02;;;;;;;0.40;0.13;;;10.20;99.90;;;;;;4978773;28;20039;-79
2023/10/27 05:49:28;;;;;;;2.45;0.65;;;10.30;99.90;;;;;;4977937;29;20035;-78
2023/10/27 05:52:23;;;;;;;0.45;0.43;;;10.30;99.90;;;;;;4976664;28;20094;-78
2023/10/27 05:54:48;;;;;;;1.42;0.73;;;10.20;99.90;;;;;;4980006;28;20062;-78
2023/10/27 05:57:14;;;;;;;0.30;0.30;;;10.20;99.90;;;;;;4979954;28;20007;-81
2023/10/27 05:59:40;;;;;;;1.00;0.35;;;10.20;99.90;;;;;;4980364;28;20019;-79
2023/10/27 06:02:06;;;;;;;2.63;0.30;;;10.20;99.90;;;;;;4979710;28;20015;-80
2023/10/27 06:04:34;;;;;;;2.38;0.60;;;10.20;99.90;;;;;;4979383;28;20036;-78
2023/10/27 06:07:00;;;;;;;0.32;0.30;;;10.20;99.90;;;;;;4978694;28;20029;-78
2023/10/27 06:09:29;;;;;;;3.80;0.45;;;10.20;99.90;;;;;;4978781;28;20019;-79
2023/10/27 06:11:54;;;;;;;0.45;0.40;;;10.20;99.90;;;;;;4978235;29;20003;-78
2023/10/27 06:14:21;;;;;;;3.20;0.50;;;10.20;99.90;;;;;;4976449;29;20042;-80
2023/10/27 06:16:46;;;;;;;2.17;0.40;;;10.20;99.90;;;;;;4976209;28;20047;-80
2023/10/27 06:19:12;;;;;;;3.13;0.60;;;10.20;99.90;;;;;;4977449;28;20110;-82
2023/10/27 06:21:37;;;;;;;4.13;0.50;;;10.20;99.90;;;;;;4975207;29;20007;-80
2023/10/27 06:24:04;;;;;;;3.40;0.73;;;10.20;99.90;;;;;;4968116;29;20034;-78
2023/10/27 06:26:29;;;;;;;0.85;0.57;;;10.10;99.90;;;;;;4957851;29;20031;-77
2023/10/27 06:28:55;;;;;;;2.50;0.77;;;10.10;99.90;;;;;;4959860;29;20226;-78
2023/10/27 06:31:21;;;;;;;2.55;1.25;;;10.10;99.90;;;;;;4960923;29;20026;-77
2023/10/27 06:33:47;;;;;;;2.67;1.42;;;10.10;99.90;;;;;;4965634;29;20027;-78
2023/10/27 06:36:13;;;;;;;2.85;0.50;;;10.20;99.90;;;;;;4964881;29;20278;-78
2023/10/27 06:38:38;;;;;;;3.58;0.90;;;10.30;99.90;;;;;;4958685;28;20024;-77
2023/10/27 06:41:04;;;;;;;2.00;0.55;;;10.30;99.90;;;;;;4963235;29;20051;-78
2023/10/27 06:43:30;;;;;;;3.38;0.60;;;10.40;99.90;;;;;;4962922;29;20031;-78
2023/10/27 06:45:56;;;;;;;4.43;0.47;;;10.50;99.90;;;;;;4960191;29;20424;-78
2023/10/27 06:48:21;;;;;;;2.30;1.10;;;10.60;99.90;;;;;;4960923;28;20035;-79
2023/10/27 06:50:47;;;;;;;1.48;0.40;;;10.60;99.90;;;;;;4961285;29;20094;-79
2023/10/27 06:53:13;;;;;;;2.40;0.40;;;10.70;99.90;;;;;;4961314;28;20035;-79
2023/10/27 06:55:40;;;;;;;0.43;0.40;;;10.70;99.90;;;;;;4960024;29;20019;-78
2023/10/27 06:58:07;;;;;;;5.28;1.20;;;10.70;99.90;;;;;;4961372;28;20027;-77
2023/10/27 07:00:33;;;;;;;2.70;0.85;;;10.60;99.90;;;;;;4961364;28;20024;-78
2023/10/27 07:02:59;;;;;;;0.50;0.40;;;10.60;99.90;;;;;;4959376;29;20023;-79
2023/10/27 07:05:25;;;;;;;3.80;0.70;;;10.60;99.90;;;;;;4960361;28;20031;-78
2023/10/27 07:07:51;;;;;;;7.78;0.95;;;10.50;99.90;;;;;;4958638;29;20504;-78
2023/10/27 07:10:17;;;;;;;2.08;0.90;;;10.60;99.90;;;;;;4959328;29;20050;-78
2023/10/27 07:12:45;;;;;;;6.53;0.68;;;10.70;99.90;;;;;;4959895;29;20393;-79
2023/10/27 07:15:13;;;;;;;3.58;0.60;;;10.80;99.90;;;;;;4970415;28;20019;-75
2023/10/27 07:17:42;;;;;;;2.65;0.50;;;10.90;99.90;;;;;;4982094;28;20054;-81
2023/10/27 07:20:28;;;;;;;1.50;0.50;;;11.00;99.90;;;;;;4981621;28;20054;-80
2023/10/27 07:22:53;;;;;;;1.23;0.40;;;11.00;99.90;;;;;;4982187;28;20278;-77
2023/10/27 07:25:42;;;;;;;2.60;0.90;;;11.00;99.90;;;;;;4982683;28;20512;-77
2023/10/27 07:31:16;;;;;;;1.42;0.40;;;11.30;99.90;;;;;;4982391;28;20063;-81
2023/10/27 07:33:43;;;;;;;5.43;0.88;;;11.40;99.90;;;;;;4981343;28;20041;-78
2023/10/27 07:36:10;;;;;;;7.43;1.90;;;11.60;99.90;;;;;;4981348;28;20038;-77
2023/10/27 07:38:36;;;;;;;1.85;0.55;;;11.80;99.90;;;;;;4976126;28;20011;-80
2023/10/27 07:41:03;;;;;;;8.50;1.23;;;12.10;99.90;;;;;;4967161;29;20023;-80
2023/10/27 07:43:29;;;;;;;1.90;0.52;;;12.30;99.90;;;;;;4964079;28;20016;-79
2023/10/27 07:45:55;;;;;;;2.00;0.45;;;12.40;99.90;;;;;;4960027;29;20114;-79
2023/10/27 07:48:22;;;;;;;5.63;0.57;;;12.50;99.90;;;;;;4962237;29;20070;-80
2023/10/27 07:50:49;;;;;;;5.28;1.50;;;12.40;99.90;;;;;;4963632;28;20058;-77
2023/10/27 07:53:15;;;;;;;1.95;0.93;;;12.30;99.90;;;;;;4961052;28;20112;-79
2023/10/27 07:55:41;;;;;;;1.23;0.50;;;12.20;99.90;;;;;;4971857;29;20027;-80
2023/10/27 07:58:07;;;;;;;9.63;0.85;;;12.00;99.90;;;;;;4971815;28;20027;-80
2023/10/27 08:00:32;;;;;;;2.60;0.65;;;11.90;99.90;;;;;;4960074;28;20094;-79
2023/10/27 08:02:58;;;;;;;2.90;0.45;;;11.80;99.90;;;;;;4959699;29;20499;-79
2023/10/27 08:05:24;;;;;;;2.72;0.70;;;11.80;99.90;;;;;;4959813;28;20099;-78
2023/10/27 08:07:50;;;;;;;0.50;0.43;;;11.80;99.90;;;;;;4958748;29;20526;-79
2023/10/27 08:10:16;;;;;;;1.92;1.15;;;11.80;99.90;;;;;;4962917;29;20091;-80
2023/10/27 08:12:43;;;;;;;4.63;1.00;;;11.70;99.90;;;;;;4963121;28;20477;-79
2023/10/27 08:15:10;;;;;;;6.82;1.20;;;11.70;99.90;;;;;;4959871;28;20023;-78
2023/10/27 08:17:36;;;;;;;3.17;0.95;;;11.60;99.90;;;;;;4947999;29;20043;-78
2023/10/27 08:20:04;;;;;;;5.93;0.60;;;11.40;99.90;;;;;;4967421;29;20034;-76
2023/10/27 08:22:32;;;;;;;2.83;0.52;;;11.20;99.90;;;;;;4963347;28;20035;-76
2023/10/27 08:25:02;;;;;;;3.55;0.40;;;11.00;99.90;;;;;;4959370;29;20049;-74
2023/10/27 08:27:27;;;;;;;3.45;0.60;;;11.00;99.90;;;;;;4962430;28;20082;-76
2023/10/27 08:29:56;;;;;;;1.02;0.65;;;11.00;99.90;;;;;;4959897;29;20031;-76
2023/10/27 08:32:22;;;;;;;3.83;1.00;;;11.00;99.90;;;;;;4959847;28;20584;-75
2023/10/27 08:34:58;;;;;;;3.15;1.05;;;11.00;99.90;;;;;;4960236;29;20132;-75
2023/10/27 08:37:25;;;;;;;7.63;0.70;;;11.00;99.90;;;;;;4960940;29;20082;-76
2023/10/27 08:39:51;;;;;;;2.80;0.50;;;11.00;99.90;;;;;;4959157;29;20035;-75
2023/10/27 08:42:18;;;;;;;5.80;1.58;;;11.00;99.90;;;;;;4960969;29;20034;-76
2023/10/27 08:44:45;;;;;;;0.47;0.43;;;11.00;99.90;;;;;;4961665;29;20023;-79
2023/10/27 08:47:12;;;;;;;0.90;0.30;;;10.90;99.90;;;;;;4970903;29;20023;-78
2023/10/27 08:49:38;;;;;;;0.75;0.75;;;10.80;99.90;;;;;;4972745;28;20122;-78
2023/10/27 08:52:04;;;;;;;2.25;0.60;;;10.80;99.90;;;;;;4970149;28;20058;-78
2023/10/27 08:54:37;;;;;;;1.95;0.60;;;10.70;99.90;;;;;;4957582;29;20034;-78
2023/10/27 08:57:05;;;;;;;4.22;1.27;;;10.60;99.90;;;;;;4959494;28;20079;-76
2023/10/27 08:59:31;;;;;;;0.32;0.30;;;10.70;99.90;;;;;;4963967;28;20031;-81
2023/10/27 09:01:57;;;;;;;2.45;0.45;;;10.60;99.90;;;;;;4969613;28;20025;-80
2023/10/27 09:04:24;;;;;;;2.58;0.40;;;10.60;99.90;;;;;;4971587;29;20031;-79
2023/10/27 09:06:50;;;;;;;1.52;0.50;;;10.60;99.90;;;;;;4968751;28;20019;-80
2023/10/27 09:09:15;;;;;;;5.82;1.33;;;10.50;99.90;;;;;;4961097;29;20090;-79
2023/10/27 09:11:43;;;;;;;1.58;0.50;;;10.70;99.90;;;;;;4961267;29;20027;-78
2023/10/27 09:14:26;;;;;;;2.70;0.88;;;10.90;99.90;;;;;;4956380;29;20030;-78
2023/10/27 09:17:11;;;;;;;4.35;0.63;;;11.10;99.90;;;;;;4960072;28;20542;-79
2023/10/27 09:19:37;;;;;;;1.80;0.60;;;11.20;99.90;;;;;;4960899;28;20040;-80
2023/10/27 09:22:15;;;;;;;1.50;0.50;;;11.40;99.90;;;;;;4957289;29;20030;-79
2023/10/27 09:24:41;;;;;;;2.00;1.17;;;11.60;99.90;;;;;;4957507;29;20035;-79
2023/10/27 09:27:06;;;;;;;1.98;0.45;;;11.80;99.90;;;;;;4961404;29;20026;-79
2023/10/27 09:29:42;;;;;;;6.00;3.55;;;11.90;99.90;;;;;;4961202;29;20049;-78
2023/10/27 09:32:27;;;;;;;2.97;1.10;;;12.00;99.90;;;;;;4958019;28;20023;-80
2023/10/27 09:35:17;;;;;;;0.40;0.40;;;12.00;99.90;;;;;;4956950;28;20370;-79
2023/10/27 09:37:43;;;;;;;0.28;0.28;;;12.20;99.90;;;;;;4959963;28;20027;-76
2023/10/27 09:40:11;;;;;;;3.40;0.45;;;12.30;99.90;;;;;;4962985;28;20362;-79
2023/10/27 09:42:38;;;;;;;0.63;0.20;;;12.40;99.90;;;;;;4965621;29;20023;-78
2023/10/27 09:45:09;;;;;;;4.68;0.70;;;12.60;99.90;;;;;;4964369;28;20034;-79
2023/10/27 09:47:41;;;;;;;0.40;0.40;;;12.40;99.90;;;;;;4960756;29;20055;-79
2023/10/27 09:50:12;;;;;;;0.82;0.20;;;12.40;99.90;;;;;;4961939;29;20094;-77
2023/10/27 09:52:41;;;;;;;2.13;0.30;;;12.30;99.90;;;;;;4963863;28;20050;-78
2023/10/27 09:55:08;;;;;;;2.90;0.28;;;12.30;99.90;;;;;;4966887;28;20015;-79
2023/10/27 09:57:34;;;;;;;0.30;0.20;;;12.30;99.90;;;;;;4973210;28;20015;-80
2023/10/27 10:00:08;;;;;;;1.35;0.30;;;12.30;99.90;;;;;;4979029;28;20050;-81
2023/10/27 10:02:37;;;;;;;0.85;0.65;;;12.20;99.90;;;;;;4971140;28;20126;-80
2023/10/27 10:05:03;;;;;;;0.47;0.32;;;12.10;99.90;;;;;;4963399;29;20027;-78
2023/10/27 10:07:35;;;;;;;0.90;0.30;;;11.90;99.90;;;;;;4968884;28;20059;-76
2023/10/27 10:10:22;;;;;;;1.48;0.60;;;11.70;99.90;;;;;;4961908;29;20031;-79
2023/10/27 10:13:13;;;;;;;0.32;0.20;;;11.50;99.90;;;;;;4968330;28;20031;-77
2023/10/27 10:15:41;;;;;;;1.33;0.40;;;11.40;99.90;;;;;;4962451;28;20384;-79
2023/10/27 10:18:28;;;;;;;0.88;0.25;;;11.40;99.90;;;;;;4969803;28;20508;-77
2023/10/27 10:20:58;;;;;;;0.75;0.30;;;11.50;99.90;;;;;;4956787;29;20083;-75
2023/10/27 10:23:47;;;;;;;0.80;0.43;;;11.80;99.90;;;;;;4975417;28;20067;-77
2023/10/27 10:26:13;;;;;;;0.45;0.28;;;12.10;99.90;;;;;;4974890;28;20092;-80
2023/10/27 10:28:40;;;;;;;0.20;0.20;;;12.10;99.90;;;;;;4958903;29;20043;-81
2023/10/27 10:31:06;;;;;;;0.30;0.20;;;12.00;99.90;;;;;;4958638;28;20034;-80
2023/10/27 10:33:34;;;;;;;2.65;0.85;;;12.00;99.90;;;;;;4967535;29;20027;-80
2023/10/27 10:36:24;;;;;;;3.05;0.40;;;12.20;99.90;;;;;;4966125;28;20027;-79
2023/10/27 10:38:51;;;;;;;0.35;0.35;;;12.50;99.90;;;;;;4952827;28;20036;-80
2023/10/27 10:41:18;;;;;;;0.63;0.30;;;12.50;99.90;;;;;;4970211;29;20014;-80
2023/10/27 10:44:13;;;;;;;3.05;0.95;;;12.50;99.90;;;;;;4969703;28;20024;-80
2023/10/27 10:46:39;;;;;;;1.40;0.47;;;12.70;99.90;;;;;;4965869;29;20078;-79
2023/10/27 10:49:05;;;;;;;0.70;0.30;;;12.70;99.90;;;;;;4972321;28;20031;-81
2023/10/27 10:51:36;;;;;;;2.72;0.40;;;12.80;99.90;;;;;;4967215;28;20031;-80
2023/10/27 10:54:03;;;;;;;3.90;0.50;;;12.80;99.90;;;;;;4964198;28;20023;-80
2023/10/27 10:56:42;;;;;;;1.92;0.82;;;12.80;99.90;;;;;;4966569;28;20016;-80
2023/10/27 10:59:08;;;;;;;0.68;0.28;;;12.70;99.90;;;;;;4971650;28;20031;-80
2023/10/27 11:01:34;;;;;;;0.43;0.30;;;12.60;99.90;;;;;;4976967;28;20035;-80
2023/10/27 11:04:00;;;;;;;0.50;0.28;;;12.40;99.90;;;;;;4975042;28;20028;-80
2023/10/27 11:06:49;;;;;;;0.57;0.30;;;12.20;99.90;;;;;;4973986;29;20090;-80
2023/10/27 11:09:23;;;;;;;0.65;0.65;;;12.10;99.90;;;;;;4977789;28;20035;-80
2023/10/27 11:12:18;;;;;;;0.77;0.50;;;11.90;99.90;;;;;;4979240;28;20023;-81
2023/10/27 11:14:44;;;;;;;3.13;1.30;;;11.80;99.90;;;;;;4975655;29;20039;-79
2023/10/27 11:17:11;;;;;;;1.85;0.20;;;11.80;99.90;;;;;;4972806;29;20000;-80
2023/10/27 11:19:51;;;;;;;2.47;0.30;;;11.70;99.90;;;;;;4977684;28;20035;-76
2023/10/27 11:25:40;;;;;;;4.88;2.65;;;11.60;99.90;;;;;;4974898;28;20059;-80
2023/10/27 11:28:22;;;;;;;2.00;0.80;;;11.70;99.90;;;;;;4965698;28;20058;-80
2023/10/27 11:31:01;;;;;;;4.75;2.35;;;11.80;99.90;;;;;;4969932;28;20074;-80
2023/10/27 11:33:28;;;;;;;3.10;1.65;;;11.80;99.90;;;;;;4971100;28;20385;-78
2023/10/27 11:35:57;;;;;;;2.00;0.60;;;11.80;99.90;;;;;;4963182;28;20046;-78
2023/10/27 11:38:23;;;;;;;0.38;0.20;;;11.80;99.90;;;;;;4960232;28;20026;-79
2023/10/27 11:40:50;;;;;;;1.45;0.93;;;11.90;99.90;;;;;;4962974;28;20038;-79
2023/10/27 11:43:17;;;;;;;2.05;0.30;;;12.00;99.90;;;;;;4962153;28;20402;-79
2023/10/27 11:45:44;;;;;;;1.77;1.13;;;12.10;99.90;;;;;;4961923;28;20493;-78
2023/10/27 11:48:10;;;;;;;2.00;1.77;;;12.10;99.90;;;;;;4960981;28;20098;-78
2023/10/27 11:50:36;;;;;;;4.50;4.10;;;12.20;99.90;;;;;;4959160;28;20031;-77
2023/10/27 11:53:02;;;;;;;6.05;3.28;;;12.30;99.90;;;;;;4959214;29;20031;-78
2023/10/27 11:55:27;;;;;;;2.42;0.60;;;12.40;99.90;;;;;;4959041;28;20026;-76
2023/10/27 11:57:53;;;;;;;6.78;4.45;;;12.50;99.90;;;;;;4959609;29;20499;-78
2023/10/27 12:00:19;;;;;;;2.20;0.77;;;12.60;99.90;;;;;;4959775;29;20391;-79
2023/10/27 12:02:44;;;;;;;1.67;0.90;;;12.70;99.90;;;;;;4960390;28;20022;-79
2023/10/27 12:05:10;;;;;;;14.75;7.72;;;12.80;99.90;;;;;;4959977;29;20110;-78
2023/10/27 12:07:35;;;;;;;4.05;2.47;;;12.90;99.90;;;;;;4960425;28;20043;-78
2023/10/27 12:10:01;;;;;;;5.05;3.38;;;13.00;99.90;;;;;;4961907;28;20035;-77
2023/10/27 12:12:28;;;;;;;2.03;1.02;;;13.20;99.90;;;;;;4961517;29;20034;-78
2023/10/27 12:14:54;;;;;;;1.67;0.40;;;13.30;99.90;;;;;;4957988;28;20026;-77
2023/10/27 12:17:20;;;;;;;0.95;0.57;;;13.40;99.90;;;;;;4968186;28;20079;-80
2023/10/27 12:19:46;;;;;;;0.95;0.45;;;13.60;99.90;;;;;;4967920;28;20035;-79
2023/10/27 12:22:11;;;;;;;0.85;0.30;;;13.90;99.90;;;;;;4961691;29;20436;-76
2023/10/27 12:24:37;;;;;;;1.80;0.40;;;14.20;99.90;;;;;;4960589;29;20030;-78
2023/10/27 12:27:04;;;;;;;0.85;0.30;;;14.40;99.90;;;;;;4959491;29;20424;-77
2023/10/27 12:29:30;;;;;;;0.50;0.32;;;14.70;99.90;;;;;;4960645;28;20031;-80
2023/10/27 12:31:55;;;;;;;0.20;0.20;;;14.70;99.90;;;;;;4961936;29;20491;-80
2023/10/27 12:34:21;;;;;;;8.35;0.50;;;14.80;99.90;;;;;;4962130;29;20090;-79
2023/10/27 12:36:46;;;;;;;1.35;0.20;;;15.40;99.90;;;;;;4962626;28;20307;-80
2023/10/27 12:39:12;;;;;;;1.40;0.38;;;16.20;99.90;;;;;;4965381;29;20030;-79
2023/10/27 12:41:38;;;;;;;0.52;0.43;;;16.40;99.90;;;;;;4966087;29;20055;-80
2023/10/27 12:44:03;;;;;;;0.77;0.40;;;16.00;99.90;;;;;;4963301;29;20050;-78
2023/10/27 12:46:29;;;;;;;2.22;0.50;;;15.60;99.90;;;;;;4960392;29;20023;-79
2023/10/27 12:48:55;;;;;;;0.63;0.30;;;16.40;99.90;;;;;;4959955;29;20042;-80
2023/10/27 12:51:23;;;;;;;0.40;0.40;;;17.50;99.90;;;;;;4961765;29;20027;-79
2023/10/27 12:53:49;;;;;;;0.30;0.30;;;18.40;99.90;;;;;;4961505;29;20098;-79
2023/10/27 12:56:14;;;;;;;0.65;0.40;;;18.20;99.90;;;;;;4959621;29;20067;-79
2023/10/27 12:58:41;;;;;;;1.27;0.40;;;18.80;99.90;;;;;;4958941;29;20420;-79
2023/10/27 13:01:06;;;;;;;0.73;0.28;;;19.80;99.90;;;;;;4959199;28;20026;-78